N7265Y -KSAN
Flight info
| Callsign | N7265Y |
|---|---|
| Flight time | N/A |
| Altitude | VFR |
| Route | PRTN |
| Aircraft | C172/L-VGD/C |
Departure
| Time | N/A |
|---|---|
| Airport | - |
Arrival
| Time | 2026-04-23 19:52 |
|---|---|
| Airport | San Diego International Airport (KSAN) |
| Time | Latitude | Longitude | Altitude | Speed | Heading |
|---|---|---|---|---|---|
| 2026-04-23 19:52 | 32.73360 | -117.17885 | 23 ft | 0 kts | 17° |
| 2026-04-23 19:53 | 32.73361 | -117.17917 | 22 ft | 10 kts | 237° |
| 2026-04-23 19:53 | 32.73357 | -117.17943 | 22 ft | 0 kts | 266° |
| 2026-04-23 19:53 | 32.73357 | -117.17944 | 22 ft | 2 kts | 262° |
| 2026-04-23 19:53 | 32.73267 | -117.17982 | 20 ft | 22 kts | 197° |
| 2026-04-23 19:54 | 32.73204 | -117.17860 | 20 ft | 25 kts | 110° |
| 2026-04-23 19:54 | 32.73141 | -117.17613 | 24 ft | 29 kts | 107° |
| 2026-04-23 19:54 | 32.73086 | -117.17548 | 24 ft | 0 kts | 143° |
| 2026-04-23 19:54 | 32.73027 | -117.17535 | 23 ft | 19 kts | 218° |
| 2026-04-23 19:55 | 32.73059 | -117.17744 | 22 ft | 47 kts | 287° |
| 2026-04-23 19:55 | 32.73193 | -117.18226 | 142 ft | 66 kts | 288° |
| 2026-04-23 19:55 | 32.73339 | -117.18719 | 378 ft | 62 kts | 275° |
| 2026-04-23 19:55 | 32.73447 | -117.19350 | 381 ft | 92 kts | 282° |
| 2026-04-23 19:56 | 32.73634 | -117.20097 | 522 ft | 94 kts | 283° |
| 2026-04-23 19:56 | 32.73841 | -117.20856 | 641 ft | 99 kts | 295° |
| 2026-04-23 19:56 | 32.74511 | -117.21015 | 591 ft | 120 kts | 24° |
| 2026-04-23 19:56 | 32.75022 | -117.20306 | 658 ft | 121 kts | 88° |
| 2026-04-23 19:57 | 32.74823 | -117.19343 | 743 ft | 118 kts | 106° |
| 2026-04-23 19:57 | 32.74590 | -117.18528 | 983 ft | 87 kts | 113° |
| 2026-04-23 19:57 | 32.74346 | -117.17908 | 1052 ft | 82 kts | 116° |
| 2026-04-23 19:57 | 32.74108 | -117.17295 | 1114 ft | 81 kts | 112° |
| 2026-04-23 19:58 | 32.73866 | -117.16666 | 1122 ft | 85 kts | 115° |
| 2026-04-23 19:58 | 32.73383 | -117.16302 | 945 ft | 93 kts | 180° |
| 2026-04-23 19:58 | 32.72842 | -117.16487 | 657 ft | 74 kts | 250° |
| 2026-04-23 19:58 | 32.72884 | -117.17053 | 405 ft | 70 kts | 277° |
| 2026-04-23 19:59 | 32.73019 | -117.17581 | 202 ft | 63 kts | 284° |
| 2026-04-23 19:59 | 32.73141 | -117.18029 | 84 ft | 52 kts | 283° |
| 2026-04-23 19:59 | 32.73226 | -117.18435 | 27 ft | 49 kts | 281° |
| 2026-04-23 19:59 | 32.73316 | -117.18811 | 20 ft | 59 kts | 287° |
| 2026-04-23 20:00 | 32.73445 | -117.19288 | 172 ft | 60 kts | 283° |
| 2026-04-23 20:00 | 32.73544 | -117.19750 | 309 ft | 68 kts | 283° |
| 2026-04-23 20:00 | 32.73691 | -117.20328 | 436 ft | 77 kts | 287° |
| 2026-04-23 20:00 | 32.73893 | -117.20929 | 572 ft | 82 kts | 306° |
| 2026-04-23 20:01 | 32.74495 | -117.21051 | 661 ft | 92 kts | 7° |
| 2026-04-23 20:01 | 32.75103 | -117.20731 | 751 ft | 102 kts | 41° |
| 2026-04-23 20:01 | 32.75177 | -117.19843 | 648 ft | 120 kts | 112° |
| 2026-04-23 20:01 | 32.74852 | -117.18964 | 713 ft | 112 kts | 117° |
| 2026-04-23 20:02 | 32.74526 | -117.18117 | 740 ft | 114 kts | 115° |
| 2026-04-23 20:02 | 32.74187 | -117.17272 | 841 ft | 111 kts | 120° |
| 2026-04-23 20:02 | 32.73790 | -117.16444 | 808 ft | 109 kts | 124° |
| 2026-04-23 20:02 | 32.73448 | -117.15775 | 827 ft | 89 kts | 114° |
| 2026-04-23 20:03 | 32.73157 | -117.15143 | 742 ft | 86 kts | 151° |
| 2026-04-23 20:03 | 32.72583 | -117.15247 | 554 ft | 87 kts | 224° |
| 2026-04-23 20:03 | 32.72562 | -117.15795 | 530 ft | 61 kts | 286° |
| 2026-04-23 20:03 | 32.72692 | -117.16250 | 491 ft | 55 kts | 282° |
| 2026-04-23 20:04 | 32.72805 | -117.16715 | 410 ft | 66 kts | 283° |
| 2026-04-23 20:04 | 32.72932 | -117.17262 | 282 ft | 66 kts | 283° |
| 2026-04-23 20:04 | 32.73060 | -117.17755 | 124 ft | 61 kts | 282° |
| 2026-04-23 20:04 | 32.73173 | -117.18221 | 25 ft | 53 kts | 282° |
| 2026-04-23 20:05 | 32.73248 | -117.18539 | 18 ft | 27 kts | 287° |
| 2026-04-23 20:05 | 32.73293 | -117.18715 | 19 ft | 20 kts | 286° |
| 2026-04-23 20:05 | 32.73364 | -117.18819 | 20 ft | 14 kts | 358° |
| 2026-04-23 20:05 | 32.73414 | -117.18794 | 20 ft | 0 kts | 49° |
| 2026-04-23 20:06 | 32.73419 | -117.18780 | 20 ft | 5 kts | 79° |
| 2026-04-23 20:06 | 32.73401 | -117.18684 | 20 ft | 17 kts | 106° |
| 2026-04-23 20:06 | 32.73358 | -117.18508 | 20 ft | 26 kts | 107° |
| 2026-04-23 20:06 | 32.73306 | -117.18299 | 19 ft | 24 kts | 104° |
| 2026-04-23 20:07 | 32.73266 | -117.18127 | 19 ft | 18 kts | 106° |
| 2026-04-23 20:07 | 32.73247 | -117.18002 | 20 ft | 12 kts | 65° |
| 2026-04-23 20:07 | 32.73322 | -117.17963 | 20 ft | 14 kts | 18° |
| 2026-04-23 20:07 | 32.73358 | -117.17915 | 22 ft | 2 kts | 175° |